Filia Ariea — PIET — position and weather

sailwx.info

Track history (hours):
 
Tides and Currents Weather Stations Pressure Air Temp Water Temp Dewpoint Dewpoint Depression Visibility Wind Speed Wind Dir Waves Ship Positions

Filia Ariea

Last reported at 2016-Apr-30 16:15 UTC. Time now 2016-Apr-30 17:00 UTC.
Position N 55°05' W 005°55'.

Length 90 m; draft 3.4 m.

Type: Ship. MMSI: 244662000.

Date/timePositionNaut miles runAvg speedWind from/ knotsBaromVisibWave heightAir tempDewpointWater temp
2016-Apr-30 16:15N 55°05' W 005°55'912.3
2016-Apr-30 15:33N 55°12' W 006°03'1211.9
2016-Apr-30 14:33N 55°16' W 006°23'21 0.4
2016-Apr-28 14:24N 55°12' W 006°59'6 7.0
2016-Apr-28 13:32N 55°17' W 006°53'1111.6
2016-Apr-28 12:33N 55°28' W 006°56'209 9.1
2016-Apr-27 13:33N 58°40' W 004°23'8 8.1
2016-Apr-27 12:33N 58°41' W 004°08'8 8.2
2016-Apr-27 11:33N 58°42' W 003°52'8 7.8
2016-Apr-27 10:33N 58°42' W 003°37'8 8.4
2016-Apr-27 09:33N 58°43' W 003°21'9 8.7
2016-Apr-27 08:33N 58°43' W 003°04'1110.7
2016-Apr-27 07:33N 58°42' W 002°43'270 9.5
2016-Apr-26 03:05N 58°03' E 005°46'610.9
2016-Apr-26 02:33N 58°02' E 005°57'1111.1
2016-Apr-26 01:33N 57°60' E 006°17'1211.8
2016-Apr-26 00:33N 57°58' E 006°39'1212.4
2016-Apr-25 23:33N 57°55' E 007°02'1312.0
2016-Apr-25 22:28N 57°54' E 007°26'8910.8
2016-Apr-25 14:13N 57°47' E 010°14'710.8
2016-Apr-25 13:33N 57°47' E 010°27'3210.2
2016-Apr-25 10:27N 57°38' E 011°24'910.3
2016-Apr-25 09:34N 57°36' E 011°41'0 0.0
2016-Apr-25 08:22N 57°36' E 011°40'0 0.0
2016-Apr-25 07:33N 57°36' E 011°41'5 5.4
2016-Apr-25 06:33N 57°30' E 011°39'1010.3
2016-Apr-25 05:33N 57°21' E 011°46'1010.2
2016-Apr-25 04:33N 57°12' E 011°54'1010.3
2016-Apr-25 03:33N 57°02' E 011°59'1110.7
2016-Apr-25 02:33N 56°51' E 012°05'1110.9
2016-Apr-25 01:33N 56°41' E 012°11'1110.7
2016-Apr-25 00:33N 56°31' E 012°16'1110.6
2016-Apr-24 23:32N 56°21' E 012°22'1010.6
2016-Apr-24 22:33N 56°11' E 012°29'1111.0
2016-Apr-24 21:33N 56°02' E 012°40'8 8.2
2016-Apr-24 20:33N 55°54' E 012°46'0 0.4
2016-Apr-24 19:33N 55°54' E 012°46'0 0.0
2016-Apr-24 18:32N 55°54' E 012°46'0 0.0
2016-Apr-24 17:33N 55°54' E 012°46'0 0.0
2016-Apr-24 16:33N 55°54' E 012°46'0 0.0
2016-Apr-24 15:32N 55°54' E 012°46'0 0.1
2016-Apr-24 14:31N 55°54' E 012°47'0 0.0
2016-Apr-24 13:33N 55°54' E 012°46'0 0.0
2016-Apr-24 12:33N 55°54' E 012°46'0 0.0
2016-Apr-24 11:33N 55°54' E 012°47'0 0.0
2016-Apr-24 10:33N 55°54' E 012°47'0 0.0
2016-Apr-24 09:32N 55°54' E 012°47'0 0.0
2016-Apr-24 08:32N 55°54' E 012°47'0 0.0
2016-Apr-24 07:32N 55°54' E 012°47'0 0.1
2016-Apr-24 06:33N 55°54' E 012°46'0 0.0
2016-Apr-24 05:33N 55°54' E 012°46'0 0.0
2016-Apr-24 04:32N 55°54' E 012°46'0 0.0
2016-Apr-24 03:32N 55°54' E 012°46'0 0.0
2016-Apr-24 02:32N 55°54' E 012°46'0 0.0
2016-Apr-24 01:32N 55°54' E 012°46'0 0.0
2016-Apr-24 00:32N 55°54' E 012°46'0 0.0
2016-Apr-23 23:33N 55°54' E 012°47'0 0.0
2016-Apr-23 22:30N 55°54' E 012°47'0 0.0
2016-Apr-23 21:33N 55°54' E 012°47'0 0.0
2016-Apr-23 20:30N 55°54' E 012°47'3 3.2
2016-Apr-23 19:34N 55°51' E 012°45'1010.3
2016-Apr-23 18:33N 55°41' E 012°41'1110.7
2016-Apr-23 17:33N 55°30' E 012°43'1110.6
2016-Apr-23 16:34N 55°20' E 012°42'10 9.8
2016-Apr-23 15:33N 55°14' E 012°55'1410.2
2016-Apr-23 14:09N 55°03' E 013°12'34 0.7
2016-Apr-21 14:33N 54°35' E 012°42'1111.2
2016-Apr-21 13:33N 54°32' E 012°23'1110.7
2016-Apr-21 12:33N 54°25' E 012°09'1111.3
2016-Apr-21 11:33N 54°25' E 011°50'1212.0
2016-Apr-21 10:33N 54°29' E 011°30'1313.4
2016-Apr-21 09:33N 54°33' E 011°08'1111.1
2016-Apr-21 08:33N 54°33' E 010°49'1111.0
2016-Apr-21 07:33N 54°31' E 010°30'1010.2
2016-Apr-21 06:33N 54°27' E 010°15'6 6.0
2016-Apr-21 05:33N 54°22' E 010°09'5 5.0
2016-Apr-21 04:31N 54°21' E 009°60'16 6.5
2016-Apr-21 02:07N 54°14' E 009°36'5 8.5
2016-Apr-21 01:29N 54°11' E 009°28'7 7.9
2016-Apr-21 00:33N 54°05' E 009°20'8 7.8
2016-Apr-20 23:33N 53°58' E 009°15'2 1.7
2016-Apr-20 22:33N 53°57' E 009°14'4 4.2
2016-Apr-20 21:33N 53°54' E 009°09'2 2.1
2016-Apr-20 20:34N 53°53' E 009°05'9 9.0
2016-Apr-20 19:33N 53°50' E 008°51'8 8.0
2016-Apr-20 18:33N 53°55' E 008°40'9 8.5
2016-Apr-20 17:33N 53°59' E 008°27'9 9.4
2016-Apr-20 16:33N 53°60' E 008°11'  
Track history (hours):
 
Tides and Currents Weather Stations Pressure Air Temp Water Temp Dewpoint Dewpoint Depression Visibility Wind Speed Wind Dir Waves Ship Positions

Filia Ariea

Last reported at 2016-Apr-30 16:15 UTC. Time now 2016-Apr-30 17:00 UTC.
Position N 55°05' W 005°55'.

Length 90 m; draft 3.4 m.

Type: Ship. MMSI: 244662000.

Date/timePositionNaut miles runAvg speedWind from/ knotsBaromVisibWave heightAir tempDewpointWater temp
2016-Apr-30 16:15N 55°05' W 005°55'912.3
2016-Apr-30 15:33N 55°12' W 006°03'1211.9
2016-Apr-30 14:33N 55°16' W 006°23'21 0.4
2016-Apr-28 14:24N 55°12' W 006°59'6 7.0
2016-Apr-28 13:32N 55°17' W 006°53'1111.6
2016-Apr-28 12:33N 55°28' W 006°56'209 9.1
2016-Apr-27 13:33N 58°40' W 004°23'8 8.1
2016-Apr-27 12:33N 58°41' W 004°08'8 8.2
2016-Apr-27 11:33N 58°42' W 003°52'8 7.8
2016-Apr-27 10:33N 58°42' W 003°37'8 8.4
2016-Apr-27 09:33N 58°43' W 003°21'9 8.7
2016-Apr-27 08:33N 58°43' W 003°04'1110.7
2016-Apr-27 07:33N 58°42' W 002°43'270 9.5
2016-Apr-26 03:05N 58°03' E 005°46'610.9
2016-Apr-26 02:33N 58°02' E 005°57'1111.1
2016-Apr-26 01:33N 57°60' E 006°17'1211.8
2016-Apr-26 00:33N 57°58' E 006°39'1212.4
2016-Apr-25 23:33N 57°55' E 007°02'1312.0
2016-Apr-25 22:28N 57°54' E 007°26'8910.8
2016-Apr-25 14:13N 57°47' E 010°14'710.8
2016-Apr-25 13:33N 57°47' E 010°27'3210.2
2016-Apr-25 10:27N 57°38' E 011°24'910.3
2016-Apr-25 09:34N 57°36' E 011°41'0 0.0
2016-Apr-25 08:22N 57°36' E 011°40'0 0.0
2016-Apr-25 07:33N 57°36' E 011°41'5 5.4
2016-Apr-25 06:33N 57°30' E 011°39'1010.3
2016-Apr-25 05:33N 57°21' E 011°46'1010.2
2016-Apr-25 04:33N 57°12' E 011°54'1010.3
2016-Apr-25 03:33N 57°02' E 011°59'1110.7
2016-Apr-25 02:33N 56°51' E 012°05'1110.9
2016-Apr-25 01:33N 56°41' E 012°11'1110.7
2016-Apr-25 00:33N 56°31' E 012°16'1110.6
2016-Apr-24 23:32N 56°21' E 012°22'1010.6
2016-Apr-24 22:33N 56°11' E 012°29'1111.0
2016-Apr-24 21:33N 56°02' E 012°40'8 8.2
2016-Apr-24 20:33N 55°54' E 012°46'0 0.4
2016-Apr-24 19:33N 55°54' E 012°46'0 0.0
2016-Apr-24 18:32N 55°54' E 012°46'0 0.0
2016-Apr-24 17:33N 55°54' E 012°46'0 0.0
2016-Apr-24 16:33N 55°54' E 012°46'0 0.0
2016-Apr-24 15:32N 55°54' E 012°46'0 0.1
2016-Apr-24 14:31N 55°54' E 012°47'0 0.0
2016-Apr-24 13:33N 55°54' E 012°46'0 0.0
2016-Apr-24 12:33N 55°54' E 012°46'0 0.0
2016-Apr-24 11:33N 55°54' E 012°47'0 0.0
2016-Apr-24 10:33N 55°54' E 012°47'0 0.0
2016-Apr-24 09:32N 55°54' E 012°47'0 0.0
2016-Apr-24 08:32N 55°54' E 012°47'0 0.0
2016-Apr-24 07:32N 55°54' E 012°47'0 0.1
2016-Apr-24 06:33N 55°54' E 012°46'0 0.0
2016-Apr-24 05:33N 55°54' E 012°46'0 0.0
2016-Apr-24 04:32N 55°54' E 012°46'0 0.0
2016-Apr-24 03:32N 55°54' E 012°46'0 0.0
2016-Apr-24 02:32N 55°54' E 012°46'0 0.0
2016-Apr-24 01:32N 55°54' E 012°46'0 0.0
2016-Apr-24 00:32N 55°54' E 012°46'0 0.0
2016-Apr-23 23:33N 55°54' E 012°47'0 0.0
2016-Apr-23 22:30N 55°54' E 012°47'0 0.0
2016-Apr-23 21:33N 55°54' E 012°47'0 0.0
2016-Apr-23 20:30N 55°54' E 012°47'3 3.2
2016-Apr-23 19:34N 55°51' E 012°45'1010.3
2016-Apr-23 18:33N 55°41' E 012°41'1110.7
2016-Apr-23 17:33N 55°30' E 012°43'1110.6
2016-Apr-23 16:34N 55°20' E 012°42'10 9.8
2016-Apr-23 15:33N 55°14' E 012°55'1410.2
2016-Apr-23 14:09N 55°03' E 013°12'34 0.7
2016-Apr-21 14:33N 54°35' E 012°42'1111.2
2016-Apr-21 13:33N 54°32' E 012°23'1110.7
2016-Apr-21 12:33N 54°25' E 012°09'1111.3
2016-Apr-21 11:33N 54°25' E 011°50'1212.0
2016-Apr-21 10:33N 54°29' E 011°30'1313.4
2016-Apr-21 09:33N 54°33' E 011°08'1111.1
2016-Apr-21 08:33N 54°33' E 010°49'1111.0
2016-Apr-21 07:33N 54°31' E 010°30'1010.2
2016-Apr-21 06:33N 54°27' E 010°15'6 6.0
2016-Apr-21 05:33N 54°22' E 010°09'5 5.0
2016-Apr-21 04:31N 54°21' E 009°60'16 6.5
2016-Apr-21 02:07N 54°14' E 009°36'5 8.5
2016-Apr-21 01:29N 54°11' E 009°28'7 7.9
2016-Apr-21 00:33N 54°05' E 009°20'8 7.8
2016-Apr-20 23:33N 53°58' E 009°15'2 1.7
2016-Apr-20 22:33N 53°57' E 009°14'4 4.2
2016-Apr-20 21:33N 53°54' E 009°09'2 2.1
2016-Apr-20 20:34N 53°53' E 009°05'9 9.0
2016-Apr-20 19:33N 53°50' E 008°51'8 8.0
2016-Apr-20 18:33N 53°55' E 008°40'9 8.5
2016-Apr-20 17:33N 53°59' E 008°27'9 9.4
2016-Apr-20 16:33N 53°60' E 008°11'  

Dump ship's entire track history